createdAt,value
2019-05-05T00:01:30.110Z,12.10
2019-05-05T00:04:01.397Z,12.20
2019-05-05T00:06:31.079Z,12.30
2019-05-05T00:09:00.751Z,11.70
2019-05-05T00:11:35.191Z,11.90
2019-05-05T00:14:15.549Z,12.20
2019-05-05T00:16:49.863Z,12.30
2019-05-05T00:19:30.722Z,12.40
2019-05-05T00:21:50.785Z,12.60
2019-05-05T00:24:20.441Z,12.70
2019-05-05T00:26:50.138Z,12.60
2019-05-05T00:29:19.833Z,12.40
2019-05-05T00:31:49.494Z,12.30
2019-05-05T00:34:19.180Z,12.40
2019-05-05T00:36:48.766Z,12.40
2019-05-05T00:39:18.460Z,12.20
2019-05-05T00:41:48.046Z,12.20
2019-05-05T00:44:17.661Z,12.20
2019-05-05T00:46:58.023Z,12.30
2019-05-05T00:49:29.356Z,12.40
2019-05-05T00:51:59.641Z,12.50
2019-05-05T00:54:29.260Z,12.10
2019-05-05T00:56:58.952Z,12.20
2019-05-05T00:59:30.336Z,12.50
2019-05-05T01:02:15.069Z,12.40
2019-05-05T01:04:58.284Z,12.20
2019-05-05T01:07:27.900Z,12.20
2019-05-05T01:09:57.592Z,12.30
2019-05-05T01:12:27.506Z,12.30
2019-05-05T01:14:57.116Z,12.20
2019-05-05T01:17:27.724Z,12.20
2019-05-05T01:20:03.399Z,12.30
2019-05-05T01:22:29.351Z,12.10
2019-05-05T01:24:58.968Z,11.80
2019-05-05T01:27:28.890Z,11.80
2019-05-05T01:29:58.503Z,11.40
2019-05-05T01:32:35.936Z,11.40
2019-05-05T01:35:06.924Z,11.50
2019-05-05T01:37:41.073Z,11.50
2019-05-05T01:40:25.760Z,11.50
2019-05-05T01:42:55.660Z,11.50
2019-05-05T01:45:25.308Z,11.50
2019-05-05T01:47:54.924Z,11.60
2019-05-05T01:50:34.427Z,11.80
2019-05-05T01:53:04.821Z,11.90
2019-05-05T01:55:34.813Z,11.90
2019-05-05T01:58:05.034Z,11.90
2019-05-05T02:00:35.187Z,12.00
2019-05-05T02:03:04.979Z,12.00
2019-05-05T02:05:34.971Z,12.00
2019-05-05T02:08:05.131Z,11.40
2019-05-05T02:10:35.053Z,11.10
2019-05-05T02:13:04.967Z,11.20
2019-05-05T02:15:34.573Z,11.10
2019-05-05T02:18:04.612Z,11.30
2019-05-05T02:20:42.516Z,11.50
2019-05-05T02:23:15.108Z,11.60
2019-05-05T02:25:44.925Z,11.50
2019-05-05T02:28:15.799Z,11.50
2019-05-05T02:31:06.893Z,11.50
2019-05-05T02:33:36.503Z,11.50
2019-05-05T02:36:25.861Z,11.20
2019-05-05T02:38:56.745Z,11.00
2019-05-05T02:41:27.876Z,11.20
2019-05-05T02:43:58.101Z,11.30
2019-05-05T02:46:35.423Z,11.50
2019-05-05T02:49:05.537Z,11.50
2019-05-05T02:51:36.913Z,11.40
2019-05-05T02:54:06.974Z,11.30
2019-05-05T02:56:49.515Z,11.50
2019-05-05T02:59:23.808Z,11.60
2019-05-05T03:01:58.411Z,11.60
2019-05-05T03:04:28.767Z,11.50
2019-05-05T03:07:01.279Z,11.30
2019-05-05T03:09:31.653Z,11.30
2019-05-05T03:12:04.833Z,11.30
2019-05-05T03:14:36.391Z,11.40
2019-05-05T03:17:08.903Z,11.30
2019-05-05T03:19:39.315Z,11.30
2019-05-05T03:22:09.217Z,10.90
2019-05-05T03:24:39.387Z,10.60
2019-05-05T03:27:09.882Z,10.70
2019-05-05T03:29:39.948Z,10.60
2019-05-05T03:32:11.647Z,10.60
2019-05-05T03:35:00.903Z,10.60
2019-05-05T03:37:30.675Z,10.60
2019-05-05T03:40:04.127Z,10.70
2019-05-05T03:42:39.719Z,10.60
2019-05-05T03:45:11.130Z,10.70
2019-05-05T03:47:41.339Z,10.30
2019-05-05T03:50:14.310Z,10.50
2019-05-05T03:52:44.743Z,10.30
2019-05-05T03:55:14.642Z,10.50
2019-05-05T03:57:44.728Z,10.50
2019-05-05T04:00:17.336Z,10.20
2019-05-05T04:02:53.852Z,10.30
2019-05-05T04:05:28.803Z,10.60
2019-05-05T04:08:00.499Z,10.60
2019-05-05T04:10:30.263Z,10.50
2019-05-05T04:13:04.690Z,10.40
2019-05-05T04:15:36.083Z,10.60
2019-05-05T04:18:07.320Z,11.00
2019-05-05T04:20:37.118Z,11.00
2019-05-05T04:23:06.726Z,11.00
2019-05-05T04:25:36.199Z,10.90
2019-05-05T04:28:05.820Z,10.90
2019-05-05T04:30:35.331Z,11.00
2019-05-05T04:33:05.544Z,11.00
2019-05-05T04:35:35.171Z,11.10
2019-05-05T04:38:04.925Z,11.20
2019-05-05T04:40:34.984Z,11.50
2019-05-05T04:43:04.655Z,11.60
2019-05-05T04:45:34.790Z,11.70
2019-05-05T04:48:13.633Z,11.70
2019-05-05T04:50:44.403Z,11.70
2019-05-05T04:53:15.547Z,11.70
2019-05-05T04:55:45.091Z,11.70
2019-05-05T04:58:14.598Z,11.70
2019-05-05T05:00:44.284Z,11.70
2019-05-05T05:03:34.627Z,11.90
2019-05-05T05:06:18.074Z,11.70
2019-05-05T05:08:47.746Z,11.80
2019-05-05T05:11:18.246Z,11.80
2019-05-05T05:13:47.859Z,12.00
2019-05-05T05:16:17.375Z,11.90
2019-05-05T05:18:47.891Z,12.00
2019-05-05T05:21:17.331Z,12.00
2019-05-05T05:23:46.866Z,12.00
2019-05-05T05:26:17.514Z,12.00
2019-05-05T05:28:47.234Z,12.00
2019-05-05T05:31:16.811Z,12.00
2019-05-05T05:33:46.283Z,12.00
2019-05-05T05:36:15.887Z,12.10
2019-05-05T05:38:47.103Z,12.10
2019-05-05T05:41:24.363Z,12.00
2019-05-05T05:44:28.112Z,12.30
2019-05-05T05:47:04.126Z,11.60
2019-05-05T05:49:40.943Z,11.00
2019-05-05T05:52:15.733Z,10.10
2019-05-05T05:54:41.615Z,10.30
2019-05-05T05:57:11.091Z,10.10
2019-05-05T05:59:40.523Z,10.40
2019-05-05T06:02:13.479Z,10.40
2019-05-05T06:04:41.284Z,10.30
2019-05-05T06:07:10.762Z,10.90
2019-05-05T06:09:40.348Z,10.50
2019-05-05T06:12:09.888Z,10.80
2019-05-05T06:14:39.426Z,11.00
2019-05-05T06:17:09.003Z,10.90
2019-05-05T06:19:39.155Z,11.10
2019-05-05T06:22:08.731Z,10.80
2019-05-05T06:24:38.348Z,10.90
2019-05-05T06:27:07.941Z,11.00
2019-05-05T06:29:37.422Z,10.90
2019-05-05T06:32:06.998Z,10.30
2019-05-05T06:34:36.474Z,10.50
2019-05-05T06:37:06.248Z,10.40
2019-05-05T06:39:35.887Z,10.50
2019-05-05T06:42:07.515Z,10.60
2019-05-05T06:44:38.667Z,10.50
2019-05-05T06:47:09.930Z,10.50
2019-05-05T06:49:39.360Z,10.10
2019-05-05T06:52:08.894Z,10.00
2019-05-05T06:54:39.423Z,10.10
2019-05-05T06:57:08.927Z,10.20
2019-05-05T06:59:38.466Z,10.20
2019-05-05T07:02:08.245Z,10.30
2019-05-05T07:04:37.779Z,10.50
2019-05-05T07:07:07.295Z,10.90
2019-05-05T07:09:36.750Z,11.00
2019-05-05T07:12:06.330Z,10.90
2019-05-05T07:14:36.019Z,10.50
2019-05-05T07:17:05.519Z,10.10
2019-05-05T07:19:35.059Z,10.20
2019-05-05T07:22:04.665Z,10.50
2019-05-05T07:24:35.346Z,10.90
2019-05-05T07:27:05.423Z,11.10
2019-05-05T07:29:34.996Z,11.20
2019-05-05T07:32:04.689Z,11.20
2019-05-05T07:34:50.670Z,11.10
2019-05-05T07:37:20.275Z,11.10
2019-05-05T07:39:49.715Z,11.00
2019-05-05T07:42:19.248Z,10.70
2019-05-05T07:44:48.716Z,10.90
2019-05-05T07:47:18.179Z,11.10
2019-05-05T07:49:47.715Z,11.40
2019-05-05T07:52:18.582Z,10.80
2019-05-05T07:54:48.023Z,10.80
2019-05-05T07:57:17.524Z,11.10
2019-05-05T07:59:47.059Z,11.20
2019-05-05T08:02:16.567Z,11.40
2019-05-05T08:04:46.123Z,11.60
2019-05-05T08:07:15.628Z,11.70
2019-05-05T08:09:45.102Z,11.70
2019-05-05T08:12:14.708Z,11.70
2019-05-05T08:14:44.536Z,11.60
2019-05-05T08:17:33.999Z,11.70
2019-05-05T08:20:09.031Z,11.70
2019-05-05T08:22:38.855Z,11.80
2019-05-05T08:25:33.713Z,11.80
2019-05-05T08:28:08.170Z,11.90
2019-05-05T08:30:45.376Z,12.00
2019-05-05T08:33:14.983Z,12.00
2019-05-05T08:35:44.975Z,12.20
2019-05-05T08:38:14.762Z,12.40
2019-05-05T08:40:44.340Z,12.50
2019-05-05T08:43:13.991Z,12.50
2019-05-05T08:45:44.346Z,12.40
2019-05-05T08:48:14.426Z,12.30
2019-05-05T08:50:44.330Z,12.20
2019-05-05T08:53:15.017Z,12.30
2019-05-05T08:55:44.590Z,12.40
2019-05-05T08:58:14.892Z,12.50
2019-05-05T09:00:44.906Z,12.90
2019-05-05T09:03:15.551Z,12.90
2019-05-05T09:05:45.238Z,12.90
2019-05-05T09:08:14.898Z,12.90
2019-05-05T09:10:44.899Z,12.90
2019-05-05T09:13:14.742Z,13.00
2019-05-05T09:15:44.506Z,13.20
2019-05-05T09:18:14.405Z,13.50
2019-05-05T09:20:44.536Z,13.80
2019-05-05T09:23:14.858Z,13.90
2019-05-05T09:25:50.023Z,13.70
2019-05-05T09:28:21.271Z,13.90
2019-05-05T09:30:53.676Z,13.60
2019-05-05T09:33:24.743Z,13.60
2019-05-05T09:35:54.686Z,13.70
2019-05-05T09:38:24.368Z,13.60
2019-05-05T09:40:54.421Z,13.80
2019-05-05T09:43:24.214Z,13.70
2019-05-05T09:45:54.458Z,13.50
2019-05-05T09:48:24.430Z,13.40
2019-05-05T09:50:54.223Z,13.70
2019-05-05T09:53:24.737Z,13.50
2019-05-05T09:55:54.990Z,13.50
2019-05-05T09:58:24.523Z,13.60
2019-05-05T10:00:54.698Z,13.50
2019-05-05T10:03:24.374Z,13.70
2019-05-05T10:05:54.159Z,13.80
2019-05-05T10:08:24.007Z,13.80
2019-05-05T10:10:54.775Z,13.60
2019-05-05T10:13:24.703Z,13.60
2019-05-05T10:15:54.948Z,13.70
2019-05-05T10:18:25.519Z,13.50
2019-05-05T10:20:55.388Z,13.60
2019-05-05T10:23:28.343Z,13.60
2019-05-05T10:25:59.596Z,13.60
2019-05-05T10:28:29.103Z,13.50
2019-05-05T10:30:58.640Z,13.50
2019-05-05T10:33:28.262Z,13.50
2019-05-05T10:35:57.783Z,13.40
2019-05-05T10:38:27.246Z,13.60
2019-05-05T10:40:56.851Z,13.70
2019-05-05T10:43:26.463Z,13.80
2019-05-05T10:45:56.067Z,13.70
2019-05-05T10:48:26.276Z,13.70
2019-05-05T10:50:55.973Z,13.80
2019-05-05T10:53:25.547Z,13.60
2019-05-05T10:55:55.168Z,13.60
2019-05-05T10:58:25.062Z,13.40
2019-05-05T11:00:56.296Z,13.50
2019-05-05T11:03:25.908Z,13.40
2019-05-05T11:05:56.206Z,13.50
2019-05-05T11:08:26.735Z,13.50
2019-05-05T11:10:56.611Z,13.50
2019-05-05T11:13:26.292Z,13.50
2019-05-05T11:15:55.935Z,13.50
2019-05-05T11:18:26.343Z,13.70
2019-05-05T11:20:55.925Z,13.70
2019-05-05T11:23:25.462Z,13.70
2019-05-05T11:25:55.040Z,13.60
2019-05-05T11:28:24.597Z,13.70
2019-05-05T11:30:54.448Z,13.70
2019-05-05T11:33:34.673Z,13.70
2019-05-05T11:36:24.152Z,13.60
2019-05-05T11:38:53.826Z,13.50
2019-05-05T11:41:24.263Z,13.40
2019-05-05T11:43:54.299Z,13.30
2019-05-05T11:46:24.720Z,13.20
2019-05-05T11:49:09.131Z,13.30
2019-05-05T11:51:40.961Z,13.30
2019-05-05T11:54:10.600Z,13.20
2019-05-05T11:56:40.195Z,13.10
2019-05-05T11:59:09.787Z,13.00
2019-05-05T12:01:39.395Z,13.00
2019-05-05T12:04:10.903Z,13.00
2019-05-05T12:06:40.462Z,13.00
2019-05-05T12:09:13.981Z,12.90
2019-05-05T12:11:44.012Z,13.00
2019-05-05T12:14:16.264Z,13.00
2019-05-05T12:16:58.697Z,13.00
2019-05-05T12:19:28.381Z,12.90
2019-05-05T12:21:57.896Z,12.90
2019-05-05T12:24:29.068Z,12.80
2019-05-05T12:27:03.797Z,12.80
2019-05-05T12:29:35.267Z,12.70
2019-05-05T12:32:04.961Z,12.70
2019-05-05T12:34:34.535Z,12.80
2019-05-05T12:37:05.315Z,12.90
2019-05-05T12:39:35.339Z,12.80
2019-05-05T12:42:05.135Z,12.90
2019-05-05T12:44:36.447Z,12.80
2019-05-05T12:47:10.689Z,12.80
2019-05-05T12:49:51.930Z,12.80
2019-05-05T12:52:21.692Z,12.80
2019-05-05T12:54:51.244Z,12.90
2019-05-05T12:57:20.751Z,12.80
2019-05-05T13:00:04.211Z,12.80
2019-05-05T13:02:34.108Z,12.80
2019-05-05T13:05:04.457Z,12.90
2019-05-05T13:07:34.040Z,12.90
2019-05-05T13:10:07.071Z,13.00
2019-05-05T13:12:37.211Z,12.90
2019-05-05T13:15:07.751Z,13.00
2019-05-05T13:17:37.663Z,13.00
2019-05-05T13:20:11.151Z,13.00
2019-05-05T13:22:58.299Z,13.00
2019-05-05T13:25:55.254Z,13.00
2019-05-05T13:28:17.315Z,13.00
2019-05-05T13:30:46.896Z,13.00
2019-05-05T13:33:16.435Z,13.00
2019-05-05T13:35:46.166Z,13.00
2019-05-05T13:38:15.699Z,13.00
2019-05-05T13:40:45.243Z,13.00
2019-05-05T13:43:14.802Z,12.90
2019-05-05T13:46:01.409Z,13.00
2019-05-05T13:48:31.130Z,13.10
2019-05-05T13:51:05.116Z,13.10
2019-05-05T13:53:34.803Z,13.00
2019-05-05T13:56:11.971Z,12.80
2019-05-05T13:58:36.051Z,12.80
2019-05-05T14:01:09.662Z,12.80
2019-05-05T14:03:38.757Z,12.70
2019-05-05T14:06:08.400Z,12.80
2019-05-05T14:08:38.290Z,12.80
2019-05-05T14:11:07.887Z,12.40
2019-05-05T14:13:37.477Z,12.10
2019-05-05T14:16:07.151Z,11.90
2019-05-05T14:18:37.000Z,12.10
2019-05-05T14:21:06.607Z,12.30
2019-05-05T14:23:38.179Z,12.30
2019-05-05T14:26:07.844Z,12.30
2019-05-05T14:28:37.387Z,11.90
2019-05-05T14:31:08.649Z,11.80
2019-05-05T14:33:45.883Z,11.70
2019-05-05T14:36:24.434Z,11.70
2019-05-05T14:38:55.851Z,11.40
2019-05-05T14:41:25.423Z,12.30
2019-05-05T14:43:56.568Z,11.70
2019-05-05T14:46:26.207Z,11.50
2019-05-05T14:49:05.823Z,11.40
2019-05-05T14:51:35.782Z,11.00
2019-05-05T14:54:05.478Z,10.60
2019-05-05T14:56:36.688Z,10.30
2019-05-05T14:59:06.286Z,10.50
2019-05-05T15:01:35.819Z,10.70
2019-05-05T15:04:05.503Z,10.70
2019-05-05T15:06:39.896Z,10.50
2019-05-05T15:09:11.108Z,10.40
2019-05-05T15:11:48.312Z,10.40
2019-05-05T15:14:17.819Z,10.30
2019-05-05T15:16:47.478Z,10.30
2019-05-05T15:19:17.070Z,10.60
2019-05-05T15:21:48.849Z,10.70
2019-05-05T15:24:17.945Z,10.80
2019-05-05T15:26:51.974Z,10.80
2019-05-05T15:29:18.719Z,10.60
2019-05-05T15:31:48.315Z,10.70
2019-05-05T15:34:17.914Z,10.70
2019-05-05T15:36:49.287Z,10.60
2019-05-05T15:39:18.903Z,10.50
2019-05-05T15:41:48.708Z,10.70
2019-05-05T15:44:18.243Z,10.70
2019-05-05T15:46:48.638Z,10.70
2019-05-05T15:49:18.408Z,10.70
2019-05-05T15:51:47.983Z,10.70
2019-05-05T15:54:18.559Z,10.70
2019-05-05T15:56:48.082Z,11.00
2019-05-05T15:59:17.771Z,10.90
2019-05-05T16:01:47.372Z,10.70
2019-05-05T16:04:16.981Z,10.90
2019-05-05T16:06:46.778Z,10.80
2019-05-05T16:09:16.211Z,10.90
2019-05-05T16:11:46.875Z,10.90
2019-05-05T16:14:16.484Z,10.90
2019-05-05T16:16:47.627Z,10.90
2019-05-05T16:19:28.187Z,10.80
2019-05-05T16:21:59.384Z,10.90
2019-05-05T16:24:30.536Z,10.90
2019-05-05T16:27:00.147Z,10.80
2019-05-05T16:29:29.638Z,10.80
2019-05-05T16:31:59.131Z,10.80
2019-05-05T16:34:28.803Z,10.60
2019-05-05T16:37:00.289Z,10.60
2019-05-05T16:39:29.827Z,10.70
2019-05-05T16:41:59.344Z,10.70
2019-05-05T16:44:29.129Z,10.90
2019-05-05T16:46:58.663Z,10.80
2019-05-05T16:49:28.203Z,10.80
2019-05-05T16:52:03.906Z,10.60
2019-05-05T16:54:34.934Z,10.60
2019-05-05T16:57:05.836Z,10.70
2019-05-05T16:59:39.132Z,10.80
2019-05-05T17:02:08.760Z,10.70
2019-05-05T17:04:43.350Z,10.70
2019-05-05T17:07:14.483Z,10.80
2019-05-05T17:09:43.995Z,10.80
2019-05-05T17:12:14.078Z,11.10
2019-05-05T17:15:04.458Z,10.90
2019-05-05T17:17:39.927Z,10.70
2019-05-05T17:20:14.989Z,10.70
2019-05-05T17:22:46.232Z,10.60
2019-05-05T17:25:15.844Z,10.60
2019-05-05T17:27:50.511Z,10.60
2019-05-05T17:30:21.191Z,10.60
2019-05-05T17:32:51.404Z,10.60
2019-05-05T17:35:20.875Z,10.60
2019-05-05T17:37:50.451Z,10.60
2019-05-05T17:40:38.683Z,10.70
2019-05-05T17:43:24.705Z,10.60
2019-05-05T17:45:57.967Z,10.60
2019-05-05T17:48:35.266Z,10.60
2019-05-05T17:51:06.557Z,10.50
2019-05-05T17:53:40.107Z,10.40
2019-05-05T17:56:13.392Z,10.50
2019-05-05T17:58:44.372Z,10.60
2019-05-05T18:01:13.757Z,10.60
2019-05-05T18:03:43.699Z,10.70
2019-05-05T18:06:18.223Z,10.60
2019-05-05T18:08:49.509Z,10.60
2019-05-05T18:11:35.665Z,10.50
2019-05-05T18:14:14.503Z,10.50
2019-05-05T18:16:44.753Z,10.50
2019-05-05T18:19:14.594Z,10.60
2019-05-05T18:21:44.107Z,10.50
2019-05-05T18:24:13.845Z,10.50
2019-05-05T18:26:43.663Z,10.40
2019-05-05T18:29:14.565Z,10.40
2019-05-05T18:31:44.371Z,10.40
2019-05-05T18:34:13.867Z,10.40
2019-05-05T18:36:44.599Z,10.40
2019-05-05T18:39:14.495Z,10.40
2019-05-05T18:41:45.787Z,10.40
2019-05-05T18:44:16.995Z,10.60
2019-05-05T18:46:48.230Z,10.40
2019-05-05T18:49:17.715Z,10.40
2019-05-05T18:51:47.256Z,10.30
2019-05-05T18:54:16.735Z,10.30
2019-05-05T18:56:46.264Z,10.40
2019-05-05T18:59:15.704Z,10.30
2019-05-05T19:01:49.851Z,10.40
2019-05-05T19:04:27.033Z,10.30
2019-05-05T19:06:58.346Z,10.30
2019-05-05T19:09:27.895Z,10.30
2019-05-05T19:11:57.604Z,10.30
2019-05-05T19:14:29.957Z,10.20
2019-05-05T19:16:58.415Z,9.90
2019-05-05T19:19:28.066Z,10.00
2019-05-05T19:21:59.305Z,9.80
2019-05-05T19:24:29.203Z,9.90
2019-05-05T19:26:58.986Z,10.20
2019-05-05T19:29:29.251Z,9.70
2019-05-05T19:31:58.892Z,9.80
2019-05-05T19:34:29.744Z,10.00
2019-05-05T19:36:59.505Z,10.10
2019-05-05T19:39:29.586Z,10.10
2019-05-05T19:41:59.205Z,10.40
2019-05-05T19:44:28.707Z,10.30
2019-05-05T19:47:00.339Z,10.10
2019-05-05T19:49:29.966Z,10.20
2019-05-05T19:51:59.571Z,10.10
2019-05-05T19:54:29.501Z,10.00
2019-05-05T19:57:08.314Z,10.00
2019-05-05T19:59:36.494Z,10.00
2019-05-05T20:02:07.631Z,10.10
2019-05-05T20:04:40.549Z,10.00
2019-05-05T20:07:10.754Z,10.00
2019-05-05T20:09:40.311Z,9.90
2019-05-05T20:12:09.854Z,9.90
2019-05-05T20:14:39.434Z,10.90
2019-05-05T20:17:16.843Z,10.60
2019-05-05T20:19:46.557Z,10.40
2019-05-05T20:22:16.247Z,10.30
2019-05-05T20:24:45.897Z,10.20
2019-05-05T20:27:15.511Z,10.20
2019-05-05T20:29:45.039Z,10.00
2019-05-05T20:32:16.365Z,9.90
2019-05-05T20:34:49.202Z,10.00
2019-05-05T20:37:20.343Z,10.10
2019-05-05T20:39:49.954Z,10.20
2019-05-05T20:42:19.674Z,10.20
2019-05-05T20:44:49.585Z,10.20
2019-05-05T20:47:19.191Z,10.20
2019-05-05T20:49:48.814Z,10.10
2019-05-05T20:52:18.514Z,10.10
2019-05-05T20:54:48.007Z,10.10
2019-05-05T20:57:17.587Z,10.00
2019-05-05T20:59:48.282Z,10.00
2019-05-05T21:02:19.709Z,10.00
2019-05-05T21:04:49.234Z,10.10
2019-05-05T21:07:18.811Z,10.10
2019-05-05T21:09:48.415Z,9.80
2019-05-05T21:12:18.024Z,9.80
2019-05-05T21:14:47.575Z,9.80
2019-05-05T21:17:17.107Z,9.70
2019-05-05T21:19:46.716Z,9.90
2019-05-05T21:22:26.803Z,9.80
2019-05-05T21:24:57.511Z,9.90
2019-05-05T21:27:28.746Z,10.00
2019-05-05T21:29:58.227Z,10.00
2019-05-05T21:32:29.724Z,10.10
2019-05-05T21:35:00.226Z,10.00
2019-05-05T21:37:30.145Z,9.90
2019-05-05T21:39:59.982Z,10.00
2019-05-05T21:42:29.424Z,10.00
2019-05-05T21:44:58.963Z,9.70
2019-05-05T21:47:28.419Z,9.80
2019-05-05T21:49:58.019Z,9.90
2019-05-05T21:52:45.599Z,9.90
2019-05-05T21:55:33.974Z,9.90
2019-05-05T21:58:25.249Z,9.90
2019-05-05T22:00:56.119Z,9.90
2019-05-05T22:03:27.602Z,9.80
2019-05-05T22:05:57.170Z,9.90
2019-05-05T22:08:26.766Z,9.90
2019-05-05T22:10:56.335Z,9.90
2019-05-05T22:13:25.939Z,9.90
2019-05-05T22:15:55.515Z,9.70
2019-05-05T22:18:25.322Z,9.80
2019-05-05T22:21:05.587Z,9.80
2019-05-05T22:23:36.830Z,9.80
2019-05-05T22:26:06.406Z,9.70
2019-05-05T22:28:36.083Z,9.60
2019-05-05T22:31:05.650Z,9.60
2019-05-05T22:33:35.271Z,9.70
2019-05-05T22:36:07.126Z,9.80
2019-05-05T22:38:55.368Z,9.80
2019-05-05T22:41:24.939Z,9.80
2019-05-05T22:43:54.470Z,9.80
2019-05-05T22:46:24.071Z,9.80
2019-05-05T22:48:54.519Z,9.50
2019-05-05T22:51:24.599Z,9.50
2019-05-05T22:53:54.765Z,9.60
2019-05-05T22:56:24.480Z,9.50
2019-05-05T22:58:54.678Z,9.40
2019-05-05T23:01:24.528Z,9.30
2019-05-05T23:03:55.846Z,9.40
2019-05-05T23:06:27.151Z,9.40
2019-05-05T23:08:58.012Z,9.60
2019-05-05T23:11:27.615Z,9.60
2019-05-05T23:14:14.918Z,9.60
2019-05-05T23:16:46.091Z,9.60
2019-05-05T23:19:15.622Z,9.70
2019-05-05T23:21:46.726Z,9.70
2019-05-05T23:24:23.842Z,9.70
2019-05-05T23:26:55.074Z,9.50
2019-05-05T23:29:26.587Z,9.40
2019-05-05T23:31:56.583Z,9.50
2019-05-05T23:34:45.355Z,9.50
2019-05-05T23:37:14.839Z,9.50
2019-05-05T23:39:44.338Z,9.60
2019-05-05T23:42:14.704Z,9.70
2019-05-05T23:44:44.651Z,9.40
2019-05-05T23:47:30.267Z,9.30
2019-05-05T23:49:59.707Z,9.50
2019-05-05T23:52:29.239Z,9.40
2019-05-05T23:54:58.800Z,9.10
2019-05-05T23:57:28.511Z,8.90
2019-05-05T23:59:58.043Z,9.20
